createdAt,value
2019-05-03T00:00:27.673Z,95316.73
2019-05-03T00:02:55.031Z,95320.33
2019-05-03T00:05:22.382Z,95310.56
2019-05-03T00:07:49.738Z,95311.88
2019-05-03T00:10:16.792Z,95310.25
2019-05-03T00:12:43.826Z,95307.46
2019-05-03T00:15:12.076Z,95310.07
2019-05-03T00:17:39.288Z,95305.17
2019-05-03T00:20:06.343Z,95301.44
2019-05-03T00:22:33.631Z,95299.02
2019-05-03T00:25:05.949Z,95293.56
2019-05-03T00:27:32.134Z,95297.87
2019-05-03T00:29:59.112Z,95297.43
2019-05-03T00:32:26.236Z,95288.66
2019-05-03T00:34:53.269Z,95292.88
2019-05-03T00:37:22.087Z,95299.09
2019-05-03T00:39:49.565Z,95303.18
2019-05-03T00:42:16.857Z,95301.88
2019-05-03T00:44:43.897Z,95304.44
2019-05-03T00:47:12.580Z,95306.06
2019-05-03T00:49:39.669Z,95310.10
2019-05-03T00:52:07.051Z,95301.74
2019-05-03T00:54:34.418Z,95305.83
2019-05-03T00:57:02.697Z,95300.48
2019-05-03T00:59:30.259Z,95303.41
2019-05-03T01:01:57.597Z,95298.02
2019-05-03T01:04:24.645Z,95300.75
2019-05-03T01:06:52.790Z,95303.81
2019-05-03T01:09:19.803Z,95298.09
2019-05-03T01:11:47.118Z,95302.30
2019-05-03T01:14:14.160Z,95294.69
2019-05-03T01:16:42.699Z,95299.27
2019-05-03T01:19:11.968Z,95288.20
2019-05-03T01:21:39.120Z,95295.41
2019-05-03T01:24:06.462Z,95291.31
2019-05-03T01:26:33.506Z,95293.30
2019-05-03T01:29:02.610Z,95295.95
2019-05-03T01:31:29.458Z,95298.73
2019-05-03T01:33:56.758Z,95298.19
2019-05-03T01:36:24.250Z,95299.13
2019-05-03T01:38:52.985Z,95301.11
2019-05-03T01:41:21.735Z,95294.59
2019-05-03T01:43:48.882Z,95294.59
2019-05-03T01:46:16.253Z,95300.48
2019-05-03T01:48:43.563Z,95296.58
2019-05-03T01:51:11.788Z,95295.63
2019-05-03T01:53:41.662Z,95295.95
2019-05-03T01:56:09.028Z,95296.39
2019-05-03T01:58:36.087Z,95290.37
2019-05-03T02:01:03.135Z,95294.91
2019-05-03T02:03:32.443Z,95285.47
2019-05-03T02:05:59.273Z,95290.05
2019-05-03T02:08:26.327Z,95294.14
2019-05-03T02:10:53.374Z,95292.53
2019-05-03T02:13:20.430Z,95295.31
2019-05-03T02:15:47.478Z,95297.78
2019-05-03T02:18:15.226Z,95298.46
2019-05-03T02:20:42.242Z,95292.13
2019-05-03T02:23:09.296Z,95296.03
2019-05-03T02:25:36.329Z,95300.93
2019-05-03T02:28:03.648Z,95298.01
2019-05-03T02:30:33.185Z,95301.25
2019-05-03T02:35:35.128Z,95299.13
2019-05-03T02:38:03.537Z,95299.13
2019-05-03T02:40:33.731Z,95298.64
2019-05-03T02:43:00.008Z,95298.64
2019-05-03T02:45:27.041Z,95295.85
2019-05-03T02:47:55.424Z,95298.95
2019-05-03T02:50:25.807Z,95300.58
2019-05-03T02:52:51.612Z,95295.36
2019-05-03T02:55:18.659Z,95301.07
2019-05-03T02:57:46.786Z,95299.45
2019-05-03T03:00:16.386Z,95297.73
2019-05-03T03:02:45.646Z,95299.85
2019-05-03T03:05:11.990Z,95301.33
2019-05-03T03:07:40.313Z,95297.28
2019-05-03T03:10:07.328Z,95303.80
2019-05-03T03:12:35.527Z,95297.47
2019-05-03T03:15:02.763Z,95306.63
2019-05-03T03:17:30.002Z,95307.97
2019-05-03T03:19:57.299Z,95312.91
2019-05-03T03:22:25.941Z,95312.91
2019-05-03T03:24:55.950Z,95317.80
2019-05-03T03:27:25.544Z,95313.58
2019-05-03T03:29:51.991Z,95319.95
2019-05-03T03:32:19.613Z,95319.98
2019-05-03T03:34:55.024Z,95313.58
2019-05-03T03:37:16.780Z,95317.17
2019-05-03T03:39:45.750Z,95318.47
2019-05-03T03:42:15.838Z,95319.46
2019-05-03T03:44:41.885Z,95318.51
2019-05-03T03:47:08.919Z,95319.14
2019-05-03T03:49:36.256Z,95318.97
2019-05-03T03:52:06.197Z,95324.18
2019-05-03T03:57:12.249Z,95327.63
2019-05-03T03:59:39.286Z,95325.20
2019-05-03T04:02:06.641Z,95328.93
2019-05-03T04:04:35.770Z,95333.38
2019-05-03T04:07:02.992Z,95340.52
2019-05-03T04:09:30.054Z,95343.94
2019-05-03T04:11:57.188Z,95337.28
2019-05-03T04:14:25.389Z,95349.64
2019-05-03T04:16:52.632Z,95344.08
2019-05-03T04:19:19.970Z,95348.77
2019-05-03T04:21:47.036Z,95347.59
2019-05-03T04:24:16.253Z,95355.55
2019-05-03T04:26:45.320Z,95359.28
2019-05-03T04:29:16.040Z,95361.36
2019-05-03T04:31:45.590Z,95359.70
2019-05-03T04:34:11.782Z,95354.14
2019-05-03T04:36:38.826Z,95360.13
2019-05-03T04:39:06.199Z,95354.38
2019-05-03T04:41:35.550Z,95357.97
2019-05-03T04:44:02.329Z,95364.03
2019-05-03T04:46:29.701Z,95363.94
2019-05-03T04:48:57.035Z,95369.78
2019-05-03T04:51:25.900Z,95369.56
2019-05-03T04:53:55.709Z,95374.42
2019-05-03T04:56:25.175Z,95373.61
2019-05-03T04:58:51.659Z,95371.28
2019-05-03T05:01:18.714Z,95377.27
2019-05-03T05:03:46.086Z,95378.67
2019-05-03T05:06:15.391Z,95382.36
2019-05-03T05:08:42.858Z,95386.06
2019-05-03T05:11:10.715Z,95388.41
2019-05-03T05:13:38.166Z,95392.23
2019-05-03T05:16:06.033Z,95395.20
2019-05-03T05:18:35.325Z,95395.61
2019-05-03T05:21:02.092Z,95393.62
2019-05-03T05:23:29.446Z,95396.56
2019-05-03T05:25:56.504Z,95400.61
2019-05-03T05:28:24.962Z,95400.88
2019-05-03T05:30:54.520Z,95405.47
2019-05-03T05:33:21.167Z,95398.89
2019-05-03T05:35:48.204Z,95409.33
2019-05-03T05:38:15.606Z,95409.69
2019-05-03T05:40:45.006Z,95412.34
2019-05-03T05:43:11.703Z,95410.41
2019-05-03T05:45:39.126Z,95408.48
2019-05-03T05:48:06.420Z,95415.95
2019-05-03T05:50:34.629Z,95412.80
2019-05-03T05:53:02.111Z,95417.79
2019-05-03T05:55:29.149Z,95417.06
2019-05-03T05:58:04.654Z,95424.26
2019-05-03T06:00:25.682Z,95429.12
2019-05-03T06:02:55.161Z,95430.30
2019-05-03T06:05:22.591Z,95426.97
2019-05-03T06:07:50.715Z,95435.52
2019-05-03T06:10:17.758Z,95440.46
2019-05-03T06:12:45.491Z,95432.97
2019-05-03T06:15:14.918Z,95444.00
2019-05-03T06:17:41.896Z,95453.17
2019-05-03T06:20:09.243Z,95452.78
2019-05-03T06:22:36.604Z,95467.53
2019-05-03T06:25:06.523Z,95463.22
2019-05-03T06:27:32.395Z,95466.03
2019-05-03T06:29:59.690Z,95472.28
2019-05-03T06:32:26.741Z,95475.87
2019-05-03T06:34:54.566Z,95475.87
2019-05-03T06:37:22.082Z,95478.99
2019-05-03T06:39:49.120Z,95484.72
2019-05-03T06:42:19.270Z,95483.25
2019-05-03T06:44:45.511Z,95478.88
2019-05-03T06:47:14.847Z,95480.09
2019-05-03T06:49:44.933Z,95486.82
2019-05-03T06:52:10.505Z,95487.69
2019-05-03T06:54:37.995Z,95486.41
2019-05-03T06:57:09.368Z,95488.73
2019-05-03T06:59:35.880Z,95494.24
2019-05-03T07:02:05.498Z,95496.08
2019-05-03T07:04:34.602Z,95494.72
2019-05-03T07:07:01.590Z,95501.84
2019-05-03T07:09:28.642Z,95499.52
2019-05-03T07:11:56.016Z,95502.25
2019-05-03T07:14:24.709Z,95507.39
2019-05-03T07:16:52.133Z,95509.59
2019-05-03T07:19:19.492Z,95515.40
2019-05-03T07:21:46.847Z,95523.53
2019-05-03T07:24:14.692Z,95521.22
2019-05-03T07:26:41.829Z,95524.47
2019-05-03T07:29:09.217Z,95529.07
2019-05-03T07:31:36.571Z,95530.84
2019-05-03T07:34:05.217Z,95542.05
2019-05-03T07:36:32.463Z,95544.52
2019-05-03T07:38:59.525Z,95539.77
2019-05-03T07:41:27.330Z,95545.77
2019-05-03T07:43:55.049Z,95542.61
2019-05-03T07:46:24.728Z,95537.08
2019-05-03T07:48:51.918Z,95543.53
2019-05-03T07:51:19.223Z,95539.37
2019-05-03T07:53:47.496Z,95541.48
2019-05-03T07:56:15.588Z,95535.80
2019-05-03T07:58:44.991Z,95539.89
2019-05-03T08:01:11.881Z,95541.19
2019-05-03T08:03:39.254Z,95541.61
2019-05-03T08:06:06.297Z,95540.38
2019-05-03T08:08:35.413Z,95545.17
2019-05-03T08:11:05.131Z,95534.86
2019-05-03T08:13:31.731Z,95536.34
2019-05-03T08:15:58.777Z,95535.98
2019-05-03T08:18:27.284Z,95541.94
2019-05-03T08:20:55.640Z,95535.85
2019-05-03T08:23:27.331Z,95533.60
2019-05-03T08:25:52.332Z,95530.36
2019-05-03T08:28:19.369Z,95530.89
2019-05-03T08:30:46.735Z,95538.89
2019-05-03T08:33:14.782Z,95538.78
2019-05-03T08:35:42.265Z,95539.16
2019-05-03T08:38:09.313Z,95533.91
2019-05-03T08:40:36.773Z,95531.48
2019-05-03T08:43:05.169Z,95530.27
2019-05-03T08:45:32.384Z,95533.98
2019-05-03T08:47:59.735Z,95536.39
2019-05-03T08:50:27.109Z,95527.07
2019-05-03T08:52:55.696Z,95535.53
2019-05-03T08:55:24.955Z,95525.98
2019-05-03T08:57:52.258Z,95531.58
2019-05-03T09:00:19.311Z,95531.55
2019-05-03T09:02:46.354Z,95535.78
2019-05-03T09:05:15.738Z,95537.03
2019-05-03T09:07:44.637Z,95537.23
2019-05-03T09:10:12.595Z,95536.42
2019-05-03T09:12:40.973Z,95536.04
2019-05-03T09:15:08.320Z,95542.63
2019-05-03T09:17:35.514Z,95537.63
2019-05-03T09:20:02.832Z,95538.53
2019-05-03T09:22:29.860Z,95543.05
2019-05-03T09:24:56.921Z,95538.98
2019-05-03T09:27:24.831Z,95534.80
2019-05-03T09:29:51.888Z,95522.46
2019-05-03T09:32:18.939Z,95529.13
2019-05-03T09:34:45.982Z,95528.20
2019-05-03T09:37:15.394Z,95530.52
2019-05-03T09:39:44.131Z,95533.67
2019-05-03T09:42:11.482Z,95536.25
2019-05-03T09:44:38.518Z,95540.55
2019-05-03T09:47:05.843Z,95544.45
2019-05-03T09:49:34.740Z,95542.53
2019-05-03T09:52:02.617Z,95541.02
2019-05-03T09:54:29.760Z,95545.59
2019-05-03T09:56:58.620Z,95543.55
2019-05-03T09:59:27.372Z,95544.09
2019-05-03T10:01:54.902Z,95534.29
2019-05-03T10:04:21.953Z,95544.09
2019-05-03T10:06:49.018Z,95534.09
2019-05-03T10:09:16.056Z,95529.39
2019-05-03T10:11:45.555Z,95529.23
2019-05-03T10:14:12.218Z,95536.44
2019-05-03T10:16:39.273Z,95537.02
2019-05-03T10:19:06.312Z,95537.80
2019-05-03T10:21:35.453Z,95535.70
2019-05-03T10:24:02.371Z,95534.82
2019-05-03T10:26:30.839Z,95530.58
2019-05-03T10:28:57.876Z,95531.25
2019-05-03T10:31:25.309Z,95536.97
2019-05-03T10:33:52.538Z,95525.15
2019-05-03T10:36:20.061Z,95524.94
2019-05-03T10:38:47.514Z,95511.74
2019-05-03T10:41:14.886Z,95515.88
2019-05-03T10:43:44.918Z,95510.94
2019-05-03T10:46:11.521Z,95515.91
2019-05-03T10:48:38.810Z,95515.50
2019-05-03T10:51:06.127Z,95516.58
2019-05-03T10:53:34.604Z,95511.25
2019-05-03T10:56:05.050Z,95518.71
2019-05-03T10:58:32.290Z,95515.14
2019-05-03T11:00:59.326Z,95509.50
2019-05-03T11:03:26.692Z,95513.41
2019-05-03T11:05:54.816Z,95507.13
2019-05-03T11:08:22.066Z,95507.06
2019-05-03T11:10:49.103Z,95504.66
2019-05-03T11:13:16.424Z,95506.08
2019-05-03T11:15:44.426Z,95505.05
2019-05-03T11:18:11.500Z,95503.69
2019-05-03T11:20:38.535Z,95501.84
2019-05-03T11:23:06.112Z,95501.95
2019-05-03T11:25:34.456Z,95501.84
2019-05-03T11:28:01.881Z,95494.97
2019-05-03T11:30:29.257Z,95501.30
2019-05-03T11:32:56.606Z,95503.18
2019-05-03T11:35:24.696Z,95503.45
2019-05-03T11:37:52.124Z,95494.62
2019-05-03T11:40:19.496Z,95495.66
2019-05-03T11:42:46.540Z,95500.64
2019-05-03T11:45:15.210Z,95503.89
2019-05-03T11:47:42.507Z,95496.05
2019-05-03T11:50:09.821Z,95490.08
2019-05-03T11:52:37.177Z,95500.11
2019-05-03T11:55:10.390Z,95503.56
2019-05-03T11:57:35.385Z,95504.41
2019-05-03T12:00:02.351Z,95502.85
2019-05-03T12:02:29.972Z,95494.20
2019-05-03T12:04:57.009Z,95495.03
2019-05-03T12:07:36.501Z,95497.52
2019-05-03T12:09:54.584Z,95487.73
2019-05-03T12:12:21.705Z,95487.83
2019-05-03T12:14:48.758Z,95479.16
2019-05-03T12:17:20.913Z,95474.13
2019-05-03T12:19:47.481Z,95493.02
2019-05-03T12:22:16.252Z,95484.02
2019-05-03T12:24:45.530Z,95482.20
2019-05-03T12:27:11.718Z,95483.92
2019-05-03T12:29:39.074Z,95484.22
2019-05-03T12:32:06.108Z,95478.23
2019-05-03T12:34:35.155Z,95484.36
2019-05-03T12:37:05.191Z,95475.83
2019-05-03T12:39:35.411Z,95473.20
2019-05-03T12:42:01.441Z,95470.31
2019-05-03T12:44:28.854Z,95468.58
2019-05-03T12:46:56.191Z,95474.85
2019-05-03T12:49:24.915Z,95470.39
2019-05-03T12:51:52.437Z,95472.53
2019-05-03T12:54:19.485Z,95465.41
2019-05-03T12:56:46.842Z,95462.92
2019-05-03T12:59:15.927Z,95467.28
2019-05-03T13:01:45.137Z,95458.48
2019-05-03T13:04:12.449Z,95459.38
2019-05-03T13:06:39.485Z,95451.26
2019-05-03T13:09:06.537Z,95449.52
2019-05-03T13:11:36.466Z,95448.81
2019-05-03T13:14:04.776Z,95452.58
2019-05-03T13:16:32.236Z,95445.44
2019-05-03T13:18:59.612Z,95448.84
2019-05-03T13:21:26.645Z,95447.72
2019-05-03T13:23:54.831Z,95445.18
2019-05-03T13:26:22.112Z,95436.66
2019-05-03T13:28:49.627Z,95439.52
2019-05-03T13:31:16.978Z,95430.28
2019-05-03T13:33:45.437Z,95425.82
2019-05-03T13:36:15.068Z,95418.11
2019-05-03T13:38:41.676Z,95421.34
2019-05-03T13:41:09.061Z,95425.30
2019-05-03T13:43:36.104Z,95413.88
2019-05-03T13:46:05.085Z,95414.89
2019-05-03T13:48:43.699Z,95408.09
2019-05-03T13:51:01.265Z,95411.58
2019-05-03T13:53:28.601Z,95405.64
2019-05-03T13:55:55.657Z,95407.55
2019-05-03T13:58:23.004Z,95411.52
2019-05-03T14:00:51.260Z,95410.91
2019-05-03T14:03:18.756Z,95403.88
2019-05-03T14:05:45.805Z,95401.50
2019-05-03T14:08:15.406Z,95407.06
2019-05-03T14:10:41.935Z,95399.97
2019-05-03T14:13:08.970Z,95398.61
2019-05-03T14:15:36.332Z,95394.70
2019-05-03T14:18:05.693Z,95395.64
2019-05-03T14:20:32.439Z,95395.39
2019-05-03T14:22:59.731Z,95396.80
2019-05-03T14:25:26.782Z,95406.41
2019-05-03T14:27:54.973Z,95407.55
2019-05-03T14:30:22.057Z,95409.73
2019-05-03T14:32:49.379Z,95414.35
2019-05-03T14:35:16.727Z,95408.78
2019-05-03T14:37:45.913Z,95411.03
2019-05-03T14:40:14.657Z,95407.34
2019-05-03T14:42:41.775Z,95398.75
2019-05-03T14:45:09.106Z,95396.42
2019-05-03T14:47:36.463Z,95401.44
2019-05-03T14:50:05.520Z,95407.13
2019-05-03T14:52:32.327Z,95396.52
2019-05-03T14:54:59.649Z,95400.84
2019-05-03T14:57:27.008Z,95397.14
2019-05-03T14:59:54.721Z,95400.16
2019-05-03T15:02:22.049Z,95390.56
2019-05-03T15:04:49.086Z,95398.46
2019-05-03T15:07:16.541Z,95398.62
2019-05-03T15:09:45.819Z,95396.56
2019-05-03T15:12:12.981Z,95396.89
2019-05-03T15:14:40.018Z,95398.64
2019-05-03T15:17:07.401Z,95390.73
2019-05-03T15:19:35.088Z,95398.13
2019-05-03T15:22:02.511Z,95391.47
2019-05-03T15:24:29.535Z,95397.09
2019-05-03T15:26:56.594Z,95398.34
2019-05-03T15:29:24.662Z,95396.22
2019-05-03T15:31:52.152Z,95397.45
2019-05-03T15:34:19.486Z,95395.98
2019-05-03T15:36:46.853Z,95399.42
2019-05-03T15:39:15.406Z,95402.78
2019-05-03T15:41:44.834Z,95398.41
2019-05-03T15:44:11.612Z,95404.05
2019-05-03T15:46:40.564Z,95401.14
2019-05-03T15:49:07.913Z,95403.14
2019-05-03T15:51:34.965Z,95404.00
2019-05-03T15:54:02.251Z,95403.69
2019-05-03T15:59:14.963Z,95402.29
2019-05-03T16:01:42.084Z,95399.94
2019-05-03T16:04:11.599Z,95404.59
2019-05-03T16:09:25.511Z,95404.09
2019-05-03T16:14:30.287Z,95411.67
2019-05-03T16:19:38.690Z,95406.72
2019-05-03T16:22:07.893Z,95415.73
2019-05-03T16:24:42.389Z,95408.67
2019-05-03T16:27:11.608Z,95417.26
2019-05-03T16:29:40.789Z,95421.16
2019-05-03T16:32:08.212Z,95420.13
2019-05-03T16:34:36.418Z,95418.68
2019-05-03T16:42:27.944Z,95426.39
2019-05-03T16:44:56.152Z,95421.81
2019-05-03T16:47:24.953Z,95419.64
2019-05-03T16:50:00.277Z,95414.68
2019-05-03T16:52:27.550Z,95416.38
2019-05-03T16:57:35.494Z,95418.31
2019-05-03T17:00:05.653Z,95419.73
2019-05-03T17:02:39.169Z,95426.12
2019-05-03T17:05:17.183Z,95422.03
2019-05-03T17:10:25.442Z,95420.04
2019-05-03T17:12:54.321Z,95418.98
2019-05-03T17:15:27.252Z,95423.36
2019-05-03T17:23:07.143Z,95434.33
2019-05-03T17:25:44.506Z,95427.11
2019-05-03T17:28:15.673Z,95423.49
2019-05-03T17:30:44.976Z,95428.41
2019-05-03T17:33:12.174Z,95428.72
2019-05-03T17:35:48.053Z,95431.46
2019-05-03T17:38:15.110Z,95428.16
2019-05-03T17:40:44.222Z,95429.16
2019-05-03T17:48:29.842Z,95420.94
2019-05-03T17:50:58.048Z,95415.47
2019-05-03T17:53:26.499Z,95417.77
2019-05-03T17:55:55.153Z,95420.39
2019-05-03T18:01:03.055Z,95424.50
2019-05-03T18:03:35.597Z,95425.93
2019-05-03T18:06:04.681Z,95420.27
2019-05-03T18:08:31.978Z,95423.44
2019-05-03T18:11:17.341Z,95423.59
2019-05-03T18:13:45.527Z,95421.17
2019-05-03T18:16:14.706Z,95416.59
2019-05-03T18:18:42.934Z,95421.80
2019-05-03T18:21:17.305Z,95423.00
2019-05-03T18:26:32.340Z,95428.64
2019-05-03T18:31:32.453Z,95435.25
2019-05-03T18:36:36.489Z,95440.90
2019-05-03T18:41:46.440Z,95438.33
2019-05-03T18:44:14.779Z,95441.40
2019-05-03T18:46:46.048Z,95444.42
2019-05-03T18:49:14.690Z,95443.67
2019-05-03T18:51:41.795Z,95446.34
2019-05-03T18:54:09.239Z,95443.97
2019-05-03T18:56:36.502Z,95448.91
2019-05-03T18:59:05.075Z,95453.85
2019-05-03T19:01:34.578Z,95456.16
2019-05-03T19:04:01.540Z,95458.95
2019-05-03T19:06:28.976Z,95461.44
2019-05-03T19:08:56.314Z,95460.30
2019-05-03T19:11:24.501Z,95465.52
2019-05-03T19:13:51.943Z,95464.55
2019-05-03T19:16:18.998Z,95463.91
2019-05-03T19:18:46.345Z,95465.36
2019-05-03T19:21:15.012Z,95467.78
2019-05-03T19:23:42.153Z,95460.58
2019-05-03T19:26:09.199Z,95462.65
2019-05-03T19:28:36.233Z,95462.45
2019-05-03T19:31:05.423Z,95467.47
2019-05-03T19:33:34.768Z,95470.02
2019-05-03T19:36:01.925Z,95468.84
2019-05-03T19:38:28.959Z,95476.63
2019-05-03T19:40:56.350Z,95483.29
2019-05-03T19:43:24.431Z,95475.30
2019-05-03T19:45:52.796Z,95476.92
2019-05-03T19:48:20.137Z,95482.13
2019-05-03T19:53:28.358Z,95485.55
2019-05-03T19:55:55.717Z,95477.76
2019-05-03T19:58:24.764Z,95481.20
2019-05-03T20:00:51.490Z,95481.87
2019-05-03T20:03:18.539Z,95483.19
2019-05-03T20:05:45.584Z,95480.15
2019-05-03T20:08:12.622Z,95476.78
2019-05-03T20:10:39.671Z,95471.45
2019-05-03T20:13:06.998Z,95469.19
2019-05-03T20:15:34.053Z,95461.86
2019-05-03T20:18:01.417Z,95465.45
2019-05-03T20:20:28.698Z,95461.03
2019-05-03T20:23:05.443Z,95460.02
2019-05-03T20:25:32.460Z,95460.31
2019-05-03T20:27:59.493Z,95460.92
2019-05-03T20:30:26.541Z,95459.92
2019-05-03T20:32:55.538Z,95460.70
2019-05-03T20:37:57.610Z,95461.14
2019-05-03T20:40:25.556Z,95457.86
2019-05-03T20:42:54.384Z,95460.44
2019-05-03T20:45:21.883Z,95460.76
2019-05-03T20:47:49.239Z,95460.41
2019-05-03T20:50:16.593Z,95455.20
2019-05-03T20:52:44.470Z,95449.00
2019-05-03T20:55:11.903Z,95453.89
2019-05-03T20:57:39.200Z,95448.36
2019-05-03T21:00:07.213Z,95449.03
2019-05-03T21:02:35.877Z,95442.55
2019-05-03T21:05:04.381Z,95445.33
2019-05-03T21:07:31.992Z,95441.27
2019-05-03T21:09:59.235Z,95440.95
2019-05-03T21:12:26.289Z,95444.55
2019-05-03T21:14:55.580Z,95433.98
2019-05-03T21:17:22.316Z,95438.23
2019-05-03T21:19:49.591Z,95435.80
2019-05-03T21:22:16.639Z,95437.77
2019-05-03T21:24:45.380Z,95430.94
2019-05-03T21:27:12.843Z,95434.53
2019-05-03T21:29:39.870Z,95426.71
2019-05-03T21:32:06.922Z,95424.77
2019-05-03T21:34:34.691Z,95421.84
2019-05-03T21:37:01.717Z,95428.04
2019-05-03T21:39:29.111Z,95427.23
2019-05-03T21:41:56.177Z,95424.31
2019-05-03T21:44:23.508Z,95423.18
2019-05-03T21:46:50.555Z,95420.42
2019-05-03T21:49:17.590Z,95425.32
2019-05-03T21:51:45.067Z,95426.63
2019-05-03T21:54:12.243Z,95428.09
2019-05-03T21:56:39.288Z,95425.00
2019-05-03T21:59:06.330Z,95428.91
2019-05-03T22:01:34.980Z,95420.77
2019-05-03T22:04:02.176Z,95412.00
2019-05-03T22:06:29.225Z,95416.08
2019-05-03T22:08:58.328Z,95416.92
2019-05-03T22:11:25.382Z,95420.34
2019-05-03T22:13:54.266Z,95418.05
2019-05-03T22:16:21.685Z,95418.05
2019-05-03T22:18:48.759Z,95414.63
2019-05-03T22:21:16.034Z,95414.14
2019-05-03T22:23:45.190Z,95416.75
2019-05-03T22:26:11.827Z,95412.17
2019-05-03T22:28:38.859Z,95418.69
2019-05-03T22:31:06.861Z,95412.50
2019-05-03T22:33:34.934Z,95410.38
2019-05-03T22:36:08.711Z,95406.01
2019-05-03T22:38:31.072Z,95401.75
2019-05-03T22:40:58.414Z,95401.44
2019-05-03T22:43:25.465Z,95402.94
2019-05-03T22:45:54.681Z,95399.06
2019-05-03T22:48:21.499Z,95402.84
2019-05-03T22:50:48.527Z,95393.12
2019-05-03T22:53:15.829Z,95391.38
2019-05-03T22:55:44.993Z,95397.25
2019-05-03T22:58:11.844Z,95388.97
2019-05-03T23:00:38.877Z,95390.79
2019-05-03T23:03:05.924Z,95388.88
2019-05-03T23:05:34.650Z,95382.23
2019-05-03T23:08:01.952Z,95384.05
2019-05-03T23:10:29.237Z,95383.45
2019-05-03T23:12:56.513Z,95378.77
2019-05-03T23:15:24.381Z,95374.61
2019-05-03T23:17:54.421Z,95375.63
2019-05-03T23:20:21.232Z,95375.15
2019-05-03T23:22:48.278Z,95370.94
2019-05-03T23:25:15.327Z,95365.27
2019-05-03T23:27:44.393Z,95359.76
2019-05-03T23:30:11.782Z,95359.13
2019-05-03T23:32:39.116Z,95357.67
2019-05-03T23:35:06.148Z,95354.27
2019-05-03T23:37:34.636Z,95347.77
2019-05-03T23:40:01.765Z,95345.00
2019-05-03T23:42:29.030Z,95338.99
2019-05-03T23:44:56.082Z,95334.44
2019-05-03T23:47:25.205Z,95329.88
2019-05-03T23:49:55.254Z,95328.41
2019-05-03T23:52:22.041Z,95323.03
2019-05-03T23:54:49.334Z,95320.91
2019-05-03T23:57:16.370Z,95321.37
2019-05-03T23:59:44.920Z,95317.14
